Time;durP1;ratioP1;P1;durP2;ratioP2;P2;SDS_P1;SDS_P2;PMS_P1;PMS_P2;Temp;Humidity;BMP_temperature;BMP_pressure;BME280_temperature;BME280_humidity;BME280_pressure;Samples;Min_cycle;Max_cycle;Signal;HPM_P1;HPM_P2
2021/05/08 00:01:14;;;;;;;1.70;1.20;;;;;;;36.31;31.97;160751.34;1633802;87;21313;-88
2021/05/08 00:03:46;;;;;;;1.20;1.10;;;;;;;36.40;31.91;160775.42;1645530;87;21940;-89
2021/05/08 00:06:18;;;;;;;1.42;1.30;;;;;;;36.44;31.86;160786.19;1629452;88;21438;-88
2021/05/08 00:08:51;;;;;;;3.27;2.52;;;;;;;36.43;31.86;160783.47;1629880;88;21380;-88
2021/05/08 00:11:23;;;;;;;1.67;1.30;;;;;;;36.43;31.83;160783.47;1630942;87;21344;-88
2021/05/08 00:13:56;;;;;;;1.47;1.32;;;;;;;36.44;31.80;160784.78;1607766;88;21244;-88
2021/05/08 00:16:29;;;;;;;3.85;2.02;;;;;;;36.47;31.77;160794.19;1618082;86;21205;-87
2021/05/08 00:19:01;;;;;;;1.37;1.27;;;;;;;36.43;31.79;160783.47;1630451;86;21275;-88
2021/05/08 00:21:33;;;;;;;2.30;1.47;;;;;;;36.38;31.82;160770.06;1631475;86;21197;-87
2021/05/08 00:24:08;;;;;;;1.77;1.30;;;;;;;36.34;31.87;160758.03;1635696;86;21419;-87
2021/05/08 00:26:40;;;;;;;2.00;1.30;;;;;;;36.33;31.88;160756.72;1639642;87;21204;-87
2021/05/08 00:29:14;;;;;;;2.52;1.77;;;;;;;36.40;31.84;160774.11;1583644;90;21270;-87
2021/05/08 00:31:46;;;;;;;3.27;1.27;;;;;;;36.35;31.86;160762.02;1583576;89;21276;-88
2021/05/08 00:34:19;;;;;;;1.20;1.10;;;;;;;36.30;31.92;160748.67;1582817;89;21216;-87
2021/05/08 00:36:51;;;;;;;2.37;1.17;;;;;;;36.27;31.96;160740.63;1581624;89;21411;-87
2021/05/08 00:39:25;;;;;;;1.30;1.20;;;;;;;36.21;31.99;160723.22;1581829;91;21268;-88
2021/05/08 00:41:57;;;;;;;2.35;1.10;;;;;;;36.23;31.98;160729.91;1603956;88;21221;-87
2021/05/08 00:44:30;;;;;;;2.67;1.20;;;;;;;36.18;32.05;160715.19;1587038;90;21310;-87
2021/05/08 00:47:02;;;;;;;2.98;2.05;;;;;;;36.21;32.01;160724.59;1570071;90;21241;-88
2021/05/08 00:49:35;;;;;;;2.17;1.40;;;;;;;36.22;32.02;160725.91;1607808;87;21256;-88
2021/05/08 00:52:08;;;;;;;3.12;1.20;;;;;;;36.23;32.01;160728.59;1583458;89;21746;-88
2021/05/08 00:54:41;;;;;;;2.90;1.37;;;;;;;36.24;32.04;160732.58;1601776;87;22518;-88
2021/05/08 00:57:13;;;;;;;1.47;1.12;;;;;;;36.24;32.07;160732.58;1639703;87;21874;-88
2021/05/08 00:59:46;;;;;;;1.70;1.05;;;;;;;36.26;32.04;160736.62;1639382;86;21494;-87
2021/05/08 01:02:18;;;;;;;2.00;0.95;;;;;;;36.27;32.00;160740.63;1639801;87;21346;-88
2021/05/08 01:04:51;;;;;;;1.40;0.95;;;;;;;36.29;32.02;160744.63;1639741;86;21414;-89
2021/05/08 01:07:24;;;;;;;1.82;1.40;;;;;;;36.29;31.99;160744.63;1607478;89;21236;-90
2021/05/08 01:09:57;;;;;;;2.25;1.40;;;;;;;36.24;32.02;160731.27;1608960;87;21208;-89
2021/05/08 01:12:30;;;;;;;2.12;1.30;;;;;;;36.26;31.99;160736.62;1639728;87;21259;-89
2021/05/08 01:15:04;;;;;;;1.57;1.20;;;;;;;36.25;31.99;160733.95;1611886;87;21240;-91
2021/05/08 01:17:40;;;;;;;1.95;1.25;;;;;;;36.22;32.04;160725.91;1627177;86;21927;-89
2021/05/08 01:20:13;;;;;;;2.10;1.60;;;;;;;36.21;32.04;160724.59;1619148;88;21261;-90
2021/05/08 01:22:50;;;;;;;1.85;1.30;;;;;;;36.20;32.05;160721.91;1575977;89;21267;-90
2021/05/08 01:25:25;;;;;;;3.90;1.62;;;;;;;36.18;32.07;160716.55;1622433;87;21751;-90
2021/05/08 01:27:59;;;;;;;1.98;1.27;;;;;;;36.15;32.08;160708.50;1604745;88;21236;-90
2021/05/08 01:30:36;;;;;;;2.08;1.20;;;;;;;36.12;32.11;160699.16;1599376;88;21326;-90
2021/05/08 01:33:10;;;;;;;1.17;1.02;;;;;;;36.10;32.15;160693.80;1604312;88;21195;-90
2021/05/08 01:35:43;;;;;;;1.65;1.15;;;;;;;36.08;32.17;160689.80;1606770;89;21262;-90
2021/05/08 01:38:15;;;;;;;1.20;0.90;;;;;;;36.12;32.18;160699.16;1616822;88;21213;-92
2021/05/08 01:40:48;;;;;;;2.20;1.20;;;;;;;36.17;32.15;160712.50;1611848;88;21266;-91
2021/05/08 01:43:22;;;;;;;2.02;1.30;;;;;;;36.10;32.13;160695.16;1589667;89;21384;-91
2021/05/08 01:45:55;;;;;;;2.17;1.10;;;;;;;36.17;32.16;160712.50;1599597;88;21207;-90
2021/05/08 01:48:29;;;;;;;1.57;1.07;;;;;;;36.13;32.18;160703.16;1615893;89;21274;-88
2021/05/08 01:51:03;;;;;;;1.50;1.20;;;;;;;36.21;32.09;160723.22;1605700;89;21353;-90
2021/05/08 01:53:35;;;;;;;1.22;1.10;;;;;;;36.16;32.13;160711.19;1605598;88;21450;-88
2021/05/08 01:56:08;;;;;;;1.70;1.60;;;;;;;36.21;32.08;160724.59;1608430;86;21294;-90
2021/05/08 01:58:41;;;;;;;5.05;1.50;;;;;;;36.14;32.13;160705.83;1602539;88;21290;-90
2021/05/08 02:01:14;;;;;;;2.05;1.12;;;;;;;36.22;32.13;160727.28;1631134;88;21264;-90
2021/05/08 02:03:46;;;;;;;2.37;1.37;;;;;;;36.21;32.12;160724.59;1605303;88;21843;-90
2021/05/08 02:06:19;;;;;;;3.30;1.87;;;;;;;36.20;32.05;160721.91;1625895;86;21835;-90
2021/05/08 02:08:54;;;;;;;1.98;1.30;;;;;;;36.19;32.11;160719.23;1632377;88;21236;-90
2021/05/08 02:11:28;;;;;;;2.83;1.98;;;;;;;36.19;32.10;160719.23;1632450;88;21197;-90
2021/05/08 02:14:00;;;;;;;1.52;1.20;;;;;;;36.18;32.11;160715.19;1577525;90;21232;-90
2021/05/08 02:16:33;;;;;;;3.35;1.40;;;;;;;36.16;32.10;160709.87;1621198;87;21403;-91
2021/05/08 02:19:07;;;;;;;1.80;1.40;;;;;;;36.11;32.16;160696.47;1620816;87;21194;-90
2021/05/08 02:21:39;;;;;;;1.80;1.30;;;;;;;36.11;32.13;160696.47;1621166;88;21260;-90
2021/05/08 02:24:13;;;;;;;1.32;1.10;;;;;;;36.10;32.17;160693.80;1592319;88;21328;-90
2021/05/08 02:26:45;;;;;;;1.98;1.25;;;;;;;36.14;32.16;160705.83;1582618;89;21273;-91
2021/05/08 02:29:17;;;;;;;1.50;1.30;;;;;;;36.17;32.13;160713.87;1600812;88;21756;-90
2021/05/08 02:31:51;;;;;;;1.40;1.20;;;;;;;36.17;32.09;160712.50;1615550;87;21202;-89
2021/05/08 02:34:23;;;;;;;1.55;1.40;;;;;;;36.16;32.10;160711.19;1596200;89;21212;-90
2021/05/08 02:36:56;;;;;;;1.77;1.60;;;;;;;36.15;32.13;160708.50;1626120;87;21423;-89
2021/05/08 02:39:29;;;;;;;1.92;1.30;;;;;;;36.16;32.10;160711.19;1632891;88;21276;-89
2021/05/08 02:42:02;;;;;;;1.67;1.57;;;;;;;36.19;32.12;160717.86;1632920;87;21249;-90
2021/05/08 02:44:34;;;;;;;1.57;1.32;;;;;;;36.13;32.14;160703.16;1632714;86;21835;-89
2021/05/08 02:47:17;;;;;;;1.75;1.30;;;;;;;36.13;32.16;160701.84;1630403;88;21760;-88
2021/05/08 02:49:41;;;;;;;1.95;1.65;;;;;;;36.08;32.22;160688.44;1631926;88;21407;-90
2021/05/08 02:52:14;;;;;;;1.62;1.30;;;;;;;36.05;32.22;160680.44;1632649;86;21302;-90
2021/05/08 02:54:47;;;;;;;1.60;1.30;;;;;;;36.07;32.20;160685.75;1629093;88;21236;-91
2021/05/08 02:57:19;;;;;;;2.75;1.67;;;;;;;36.10;32.15;160693.80;1625234;87;21247;-90
2021/05/08 02:59:52;;;;;;;1.52;1.27;;;;;;;36.06;32.20;160681.75;1621577;87;21331;-89
2021/05/08 03:02:24;;;;;;;3.15;1.50;;;;;;;36.04;32.18;160677.77;1625346;87;21224;-89
2021/05/08 03:04:58;;;;;;;2.47;1.47;;;;;;;36.10;32.09;160695.16;1629693;87;21717;-89
2021/05/08 03:07:31;;;;;;;1.95;1.65;;;;;;;36.08;32.09;160687.13;1605089;89;21723;-89
2021/05/08 03:10:05;;;;;;;3.52;1.32;;;;;;;36.04;32.13;160677.77;1605259;89;21850;-89
2021/05/08 03:12:37;;;;;;;1.77;1.37;;;;;;;36.00;32.17;160665.67;1605132;88;21307;-88
2021/05/08 03:15:11;;;;;;;2.08;1.35;;;;;;;35.97;32.21;160657.62;1623203;87;21273;-88
2021/05/08 03:17:44;;;;;;;1.95;1.35;;;;;;;35.99;32.27;160663.05;1620103;88;21309;-87
2021/05/08 03:20:19;;;;;;;2.52;1.35;;;;;;;35.98;32.23;160660.31;1629215;86;21794;-89
2021/05/08 03:22:51;;;;;;;1.50;1.40;;;;;;;35.99;32.29;160663.05;1611940;87;21630;-89
2021/05/08 03:25:24;;;;;;;1.82;1.32;;;;;;;36.02;32.27;160671.03;1608818;87;21216;-90
2021/05/08 03:27:57;;;;;;;1.75;1.60;;;;;;;36.09;32.20;160692.48;1621059;87;21272;-89
2021/05/08 03:30:31;;;;;;;4.97;2.52;;;;;;;36.12;32.15;160699.16;1639940;87;21208;-88
2021/05/08 03:33:05;;;;;;;3.05;1.80;;;;;;;36.17;32.09;160713.87;1639465;86;21378;-88
2021/05/08 03:35:37;;;;;;;3.22;1.65;;;;;;;36.15;32.10;160708.50;1616379;87;21444;-88
2021/05/08 03:38:10;;;;;;;2.90;1.62;;;;;;;36.16;32.06;160709.87;1609701;88;21253;-88
2021/05/08 03:40:42;;;;;;;3.37;1.92;;;;;;;36.24;32.01;160731.27;1616031;88;21178;-88
2021/05/08 03:43:15;;;;;;;1.45;1.32;;;;;;;36.22;32.02;160725.91;1620700;88;21248;-88
2021/05/08 03:45:52;;;;;;;2.92;2.33;;;;;;;36.23;32.01;160729.91;1603982;88;21297;-89
2021/05/08 03:48:25;;;;;;;1.47;1.37;;;;;;;36.24;31.97;160731.27;1610627;87;21212;-87
2021/05/08 03:50:58;;;;;;;2.75;1.75;;;;;;;36.24;31.98;160732.58;1619953;88;21285;-89
2021/05/08 03:53:30;;;;;;;4.17;1.60;;;;;;;36.23;31.99;160729.91;1626324;87;21206;-88
2021/05/08 03:56:02;;;;;;;3.08;1.70;;;;;;;36.17;32.01;160713.87;1622640;87;21715;-88
2021/05/08 03:58:35;;;;;;;2.17;1.72;;;;;;;36.17;32.05;160713.87;1614672;87;21230;-88
2021/05/08 04:01:07;;;;;;;1.57;1.30;;;;;;;36.12;32.07;160700.47;1606998;88;21314;-89
2021/05/08 04:03:39;;;;;;;1.98;1.40;;;;;;;36.13;32.10;160703.16;1629914;87;21244;-91
2021/05/08 04:06:12;;;;;;;4.00;1.70;;;;;;;36.08;32.17;160688.44;1627498;86;21197;-89
2021/05/08 04:08:45;;;;;;;2.52;1.50;;;;;;;36.09;32.19;160692.48;1609501;87;21770;-90
2021/05/08 04:11:17;;;;;;;1.90;1.67;;;;;;;36.12;32.16;160699.16;1592845;87;21192;-89
2021/05/08 04:13:51;;;;;;;2.12;1.50;;;;;;;36.09;32.15;160692.48;1612379;87;21252;-89
2021/05/08 04:16:23;;;;;;;2.50;1.60;;;;;;;36.09;32.22;160692.48;1608456;87;21303;-90
2021/05/08 04:18:55;;;;;;;2.05;1.42;;;;;;;36.24;32.11;160732.58;1623609;86;21254;-89
2021/05/08 04:21:27;;;;;;;2.10;1.60;;;;;;;36.33;31.97;160755.34;1610966;87;21811;-88
2021/05/08 04:23:59;;;;;;;2.40;1.60;;;;;;;36.37;31.98;160766.06;1634451;87;21358;-88
2021/05/08 04:26:32;;;;;;;2.27;1.72;;;;;;;36.40;31.95;160775.42;1639652;87;21874;-88
2021/05/08 04:29:06;;;;;;;4.12;1.90;;;;;;;36.44;31.87;160786.19;1628180;87;21436;-89
2021/05/08 04:31:38;;;;;;;2.77;1.47;;;;;;;36.44;31.87;160786.19;1606092;87;21344;-88
2021/05/08 04:34:11;;;;;;;1.52;1.40;;;;;;;36.45;31.87;160787.50;1617414;86;21173;-88
2021/05/08 04:36:44;;;;;;;2.47;1.77;;;;;;;36.32;31.94;160754.03;1619813;87;21775;-88
2021/05/08 04:39:16;;;;;;;3.87;1.87;;;;;;;36.24;32.06;160732.58;1617952;86;21214;-89
2021/05/08 04:41:48;;;;;;;2.45;2.25;;;;;;;36.21;32.09;160723.22;1616391;87;21843;-89
2021/05/08 04:44:21;;;;;;;2.58;1.90;;;;;;;36.22;32.09;160727.28;1606827;88;21278;-88
2021/05/08 04:46:53;;;;;;;2.45;1.70;;;;;;;36.25;32.04;160735.27;1622464;87;21991;-88
2021/05/08 04:49:26;;;;;;;2.67;1.60;;;;;;;36.23;32.10;160729.91;1630862;87;21335;-88
2021/05/08 04:52:00;;;;;;;3.02;1.47;;;;;;;36.19;32.14;160717.86;1611206;87;21243;-88
2021/05/08 04:54:32;;;;;;;1.95;1.70;;;;;;;36.13;32.19;160703.16;1629324;87;21177;-89
2021/05/08 04:57:05;;;;;;;2.75;1.60;;;;;;;36.08;32.25;160689.80;1612677;88;21711;-88
2021/05/08 04:59:37;;;;;;;1.70;1.50;;;;;;;36.05;32.28;160679.08;1617402;87;21239;-89
2021/05/08 05:02:09;;;;;;;2.00;1.60;;;;;;;36.04;32.35;160677.77;1616298;87;21256;-89
2021/05/08 05:04:42;;;;;;;2.60;1.60;;;;;;;36.09;32.34;160691.11;1610211;87;21283;-89
2021/05/08 05:07:14;;;;;;;2.92;1.72;;;;;;;36.22;32.23;160727.28;1617379;87;21726;-88
2021/05/08 05:09:46;;;;;;;1.75;1.35;;;;;;;36.08;32.36;160687.13;1633525;86;21850;-87
2021/05/08 05:12:18;;;;;;;1.80;1.70;;;;;;;36.12;32.35;160699.16;1609068;87;21262;-88
2021/05/08 05:14:51;;;;;;;3.12;1.77;;;;;;;36.11;32.37;160697.78;1614895;86;21294;-89
2021/05/08 05:17:23;;;;;;;3.12;1.95;;;;;;;36.15;32.34;160707.19;1607248;87;21293;-88
2021/05/08 05:19:57;;;;;;;2.75;2.00;;;;;;;36.17;32.36;160712.50;1608726;87;21221;-89
2021/05/08 05:22:30;;;;;;;3.83;1.90;;;;;;;36.21;32.34;160723.22;1617324;87;21933;-90
2021/05/08 05:25:03;;;;;;;2.77;2.30;;;;;;;36.19;32.37;160719.23;1627341;87;21384;-91
2021/05/08 05:27:36;;;;;;;4.22;1.92;;;;;;;36.24;32.33;160732.58;1629824;86;21249;-89
2021/05/08 05:30:09;;;;;;;2.40;1.92;;;;;;;36.17;32.42;160712.50;1583530;90;21714;-90
2021/05/08 05:32:41;;;;;;;2.17;1.62;;;;;;;36.18;32.41;160715.19;1607819;86;21758;-91
2021/05/08 05:35:14;;;;;;;2.40;1.70;;;;;;;36.19;32.39;160717.86;1619726;87;21354;-91
2021/05/08 05:37:47;;;;;;;1.67;1.40;;;;;;;36.22;32.36;160727.28;1615041;88;21221;-89
2021/05/08 05:40:19;;;;;;;3.02;2.10;;;;;;;36.16;32.41;160711.19;1623355;88;21273;-91
2021/05/08 05:42:52;;;;;;;3.80;2.12;;;;;;;36.17;32.42;160713.87;1607325;87;21287;-91
2021/05/08 05:45:25;;;;;;;3.08;1.95;;;;;;;36.18;32.38;160716.55;1619581;86;21721;-90
2021/05/08 05:48:02;;;;;;;3.22;1.75;;;;;;;36.17;32.44;160713.87;1617009;87;21231;-89
2021/05/08 05:50:43;;;;;;;2.35;1.67;;;;;;;36.15;32.46;160707.19;1622198;86;21458;-89
2021/05/08 05:53:17;;;;;;;2.40;1.72;;;;;;;36.17;32.45;160712.50;1578430;90;21664;-89
2021/05/08 05:55:49;;;;;;;2.80;2.00;;;;;;;36.18;32.53;160715.19;1625171;87;21408;-89
2021/05/08 05:58:21;;;;;;;3.45;1.75;;;;;;;36.16;32.56;160711.19;1614807;87;21214;-89
2021/05/08 06:00:54;;;;;;;3.52;2.10;;;;;;;36.19;32.60;160717.86;1584738;89;21264;-89
2021/05/08 06:03:26;;;;;;;3.12;1.80;;;;;;;36.20;32.63;160720.55;1590130;89;21244;-90
2021/05/08 06:05:58;;;;;;;2.17;1.85;;;;;;;36.34;32.54;160759.34;1587884;88;21296;-88
2021/05/08 06:08:32;;;;;;;4.33;2.10;;;;;;;36.44;32.44;160784.78;1602450;88;21238;-89
2021/05/08 06:11:05;;;;;;;2.30;1.82;;;;;;;36.42;32.47;160779.41;1571997;89;21212;-88
2021/05/08 06:13:37;;;;;;;1.98;1.77;;;;;;;36.36;32.50;160764.69;1580403;89;21228;-88
2021/05/08 06:16:10;;;;;;;3.83;2.00;;;;;;;36.45;32.45;160787.50;1567439;90;21330;-89
2021/05/08 06:18:43;;;;;;;2.50;1.98;;;;;;;36.52;32.36;160807.59;1612005;86;21293;-89
2021/05/08 06:21:16;;;;;;;3.37;2.12;;;;;;;36.47;32.44;160794.19;1591918;87;21210;-88
2021/05/08 06:23:50;;;;;;;2.75;2.25;;;;;;;36.41;32.49;160778.09;1601861;86;21226;-87
2021/05/08 06:26:23;;;;;;;2.10;1.82;;;;;;;36.33;32.62;160756.72;1610097;86;21263;-87
2021/05/08 06:28:57;;;;;;;2.35;1.95;;;;;;;36.31;32.62;160751.34;1609910;87;21192;-86
2021/05/08 06:31:30;;;;;;;2.77;1.90;;;;;;;36.36;32.58;160763.39;1613465;87;21230;-84
2021/05/08 06:34:03;;;;;;;2.55;1.90;;;;;;;36.30;32.58;160748.67;1609614;86;21235;-87
2021/05/08 06:36:36;;;;;;;2.70;1.60;;;;;;;36.28;32.59;160743.31;1610662;86;21294;-89
2021/05/08 06:39:08;;;;;;;3.30;1.90;;;;;;;36.32;32.55;160754.03;1609944;86;21310;-89
2021/05/08 06:41:41;;;;;;;2.37;1.75;;;;;;;36.35;32.51;160762.02;1608656;86;22375;-87
2021/05/08 06:44:14;;;;;;;2.12;1.82;;;;;;;36.38;32.42;160770.06;1607794;88;21298;-88
2021/05/08 06:46:47;;;;;;;3.40;1.65;;;;;;;36.38;32.40;160768.75;1608531;86;21266;-89
2021/05/08 06:49:19;;;;;;;1.77;1.37;;;;;;;36.37;32.43;160767.38;1584911;88;21349;-88
2021/05/08 06:51:52;;;;;;;3.40;1.72;;;;;;;36.35;32.40;160760.70;1577851;88;21201;-89
2021/05/08 06:54:24;;;;;;;2.08;1.60;;;;;;;36.40;32.39;160774.11;1585231;89;21277;-87
2021/05/08 06:56:57;;;;;;;2.77;1.77;;;;;;;36.39;32.37;160772.75;1576076;88;21236;-88
2021/05/08 06:59:32;;;;;;;2.62;2.05;;;;;;;36.34;32.42;160758.03;1582450;88;21248;-88
2021/05/08 07:02:04;;;;;;;1.60;1.50;;;;;;;36.39;32.35;160772.75;1581586;88;21242;-85
2021/05/08 07:04:37;;;;;;;1.80;1.60;;;;;;;36.41;32.35;160776.73;1574960;88;21304;-86
2021/05/08 07:07:09;;;;;;;1.80;1.30;;;;;;;36.35;32.29;160760.70;1583707;88;21213;-87
2021/05/08 07:09:42;;;;;;;2.20;1.82;;;;;;;36.44;32.22;160786.19;1604088;88;21236;-88
2021/05/08 07:12:14;;;;;;;2.30;1.60;;;;;;;36.29;32.30;160745.98;1591650;88;21248;-88
2021/05/08 07:14:47;;;;;;;2.17;1.62;;;;;;;36.15;32.45;160707.19;1595692;89;21147;-88
2021/05/08 07:17:19;;;;;;;1.77;1.67;;;;;;;36.11;32.46;160697.78;1562236;89;21286;-89
2021/05/08 07:19:52;;;;;;;1.80;1.45;;;;;;;36.10;32.46;160695.16;1586904;88;21241;-88
2021/05/08 07:22:25;;;;;;;3.95;1.20;;;;;;;36.06;32.50;160681.75;1582536;89;21284;-87
2021/05/08 07:24:59;;;;;;;2.17;1.47;;;;;;;36.11;32.46;160697.78;1579222;88;21219;-87
2021/05/08 07:27:31;;;;;;;2.20;1.27;;;;;;;36.13;32.41;160703.16;1592445;88;21290;-89
2021/05/08 07:30:04;;;;;;;1.40;1.30;;;;;;;36.08;32.40;160687.13;1568220;89;21786;-92
2021/05/08 07:32:38;;;;;;;1.62;1.32;;;;;;;35.95;32.57;160652.28;1619469;86;21337;-84
2021/05/08 07:35:12;;;;;;;3.50;1.40;;;;;;;35.95;32.56;160653.59;1604258;87;21241;-86
2021/05/08 07:37:46;;;;;;;2.58;1.40;;;;;;;36.00;32.47;160665.67;1599433;87;21266;-84
2021/05/08 07:40:19;;;;;;;2.17;1.60;;;;;;;35.94;32.54;160649.59;1595790;87;21389;-85
2021/05/08 07:42:52;;;;;;;2.20;1.67;;;;;;;35.91;32.56;160641.56;1601343;87;21223;-86
2021/05/08 07:45:31;;;;;;;1.70;1.30;;;;;;;35.90;32.56;160640.23;1600491;86;21400;-86
2021/05/08 07:48:06;;;;;;;2.60;1.60;;;;;;;35.90;32.55;160638.87;1600037;87;21741;-83
2021/05/08 07:50:40;;;;;;;1.72;1.42;;;;;;;36.00;32.46;160667.05;1600767;87;21255;-86
2021/05/08 07:53:14;;;;;;;3.22;1.27;;;;;;;35.87;32.58;160632.20;1602520;87;21416;-84
2021/05/08 07:55:53;;;;;;;2.08;1.42;;;;;;;35.97;32.54;160657.62;1601536;87;21298;-87
2021/05/08 07:58:32;;;;;;;3.05;1.47;;;;;;;35.95;32.55;160652.28;1598957;87;21235;-87
2021/05/08 08:01:04;;;;;;;2.15;1.30;;;;;;;35.98;32.52;160661.62;1597595;87;21376;-89
2021/05/08 08:03:38;;;;;;;2.58;1.45;;;;;;;35.91;32.59;160641.56;1602369;87;21199;-85
2021/05/08 08:06:13;;;;;;;1.92;1.07;;;;;;;35.95;32.56;160653.59;1597293;87;21300;-85
2021/05/08 08:08:51;;;;;;;4.72;1.12;;;;;;;35.99;32.50;160663.05;1598272;87;21310;-84
2021/05/08 08:11:24;;;;;;;2.45;1.52;;;;;;;35.98;32.45;160660.31;1597710;87;21211;-86
2021/05/08 08:13:58;;;;;;;2.15;1.40;;;;;;;35.96;32.39;160656.27;1599463;87;21310;-85
2021/05/08 08:16:34;;;;;;;2.45;1.30;;;;;;;35.82;32.38;160618.80;1598488;87;21305;-85
2021/05/08 08:19:07;;;;;;;3.27;1.70;;;;;;;35.72;32.43;160590.75;1594292;87;21352;-84
2021/05/08 08:21:41;;;;;;;1.90;1.12;;;;;;;35.72;32.39;160590.75;1599161;87;21326;-84
2021/05/08 08:24:37;;;;;;;1.45;1.35;;;;;;;35.68;32.36;160580.03;1595794;87;21833;-85
2021/05/08 08:27:26;;;;;;;2.20;1.50;;;;;;;35.68;32.32;160581.39;1590499;87;21973;-87
2021/05/08 08:29:59;;;;;;;1.92;1.47;;;;;;;35.62;32.25;160564.00;1590676;87;21293;-89
2021/05/08 08:32:32;;;;;;;1.60;1.35;;;;;;;35.59;32.21;160555.97;1590227;87;21877;-89
2021/05/08 08:35:05;;;;;;;2.33;1.50;;;;;;;35.54;32.16;160542.56;1591545;87;21264;-87
2021/05/08 08:37:37;;;;;;;2.60;1.50;;;;;;;35.47;32.12;160525.17;1585235;88;21235;-91
2021/05/08 08:40:10;;;;;;;2.40;1.37;;;;;;;35.39;32.12;160502.42;1589094;87;21250;-87
2021/05/08 08:42:42;;;;;;;2.42;1.15;;;;;;;35.31;32.10;160481.00;1598378;87;21264;-88
2021/05/08 08:45:15;;;;;;;1.40;1.22;;;;;;;35.28;31.99;160473.00;1594259;87;21942;-89
2021/05/08 08:47:49;;;;;;;5.83;1.50;;;;;;;35.40;31.66;160505.11;1592348;87;21870;-89
2021/05/08 08:50:27;;;;;;;1.35;1.25;;;;;;;35.42;31.44;160510.41;1594977;87;21786;-92
2021/05/08 08:53:01;;;;;;;1.40;1.17;;;;;;;35.22;31.44;160456.94;1593260;88;21541;-89
2021/05/08 08:55:35;;;;;;;1.52;1.15;;;;;;;35.18;31.37;160446.28;1595733;87;21230;-88
2021/05/08 08:58:08;;;;;;;1.42;1.10;;;;;;;35.13;31.37;160432.88;1587668;87;22263;-86
2021/05/08 09:00:41;;;;;;;1.85;1.00;;;;;;;35.08;31.38;160418.17;1595282;88;21249;-89
2021/05/08 09:03:15;;;;;;;1.25;1.10;;;;;;;34.96;31.42;160387.34;1594807;87;21266;-88
2021/05/08 09:05:48;;;;;;;1.50;1.00;;;;;;;34.97;31.36;160388.72;1598490;86;21330;-86
2021/05/08 09:08:22;;;;;;;1.95;1.07;;;;;;;34.85;31.34;160356.62;1590114;87;21393;-85
2021/05/08 09:11:20;;;;;;;1.17;0.90;;;;;;;34.83;31.31;160351.28;1595996;87;21215;-87
2021/05/08 09:14:23;;;;;;;2.22;1.50;;;;;;;34.71;31.35;160319.19;1596917;87;21876;-89
2021/05/08 09:17:09;;;;;;;1.27;0.93;;;;;;;34.76;31.29;160332.58;1590484;88;21965;-86
2021/05/08 09:19:49;;;;;;;3.55;1.10;;;;;;;34.74;31.29;160328.53;1596952;87;21812;-91
2021/05/08 09:22:40;;;;;;;2.35;1.07;;;;;;;34.75;31.25;160331.22;1593302;88;21368;-88
2021/05/08 09:25:19;;;;;;;2.15;1.10;;;;;;;34.65;31.26;160304.48;1596404;87;21291;-87
2021/05/08 09:27:57;;;;;;;1.40;1.30;;;;;;;34.60;31.28;160289.78;1611428;86;21789;-85
2021/05/08 09:30:30;;;;;;;2.77;1.10;;;;;;;34.55;31.29;160276.34;1620527;87;21294;-86
2021/05/08 09:33:04;;;;;;;1.17;1.05;;;;;;;34.52;31.32;160269.67;1621707;87;21266;-88
2021/05/08 09:35:37;;;;;;;5.00;1.07;;;;;;;34.49;31.29;160260.33;1620716;86;21255;-89
2021/05/08 09:38:17;;;;;;;2.72;1.62;;;;;;;34.45;31.35;160250.98;1620539;86;21222;-89
2021/05/08 09:40:53;;;;;;;3.37;0.90;;;;;;;34.47;31.26;160254.97;1624850;86;21245;-88
2021/05/08 09:43:26;;;;;;;2.70;1.10;;;;;;;34.47;31.23;160254.97;1621223;87;21223;-87
2021/05/08 09:45:59;;;;;;;1.07;0.98;;;;;;;34.49;31.20;160260.33;1622233;86;21885;-87
2021/05/08 09:48:33;;;;;;;1.32;0.80;;;;;;;34.51;31.18;160265.69;1614452;86;21259;-89
2021/05/08 09:51:25;;;;;;;1.37;1.00;;;;;;;34.52;31.19;160269.67;1611374;86;21269;-90
2021/05/08 09:54:03;;;;;;;1.30;1.10;;;;;;;34.56;31.16;160280.39;1614666;87;21797;-89
2021/05/08 09:56:46;;;;;;;1.45;1.10;;;;;;;34.59;31.11;160288.47;1613522;87;21231;-89
2021/05/08 09:59:41;;;;;;;1.20;0.80;;;;;;;34.64;31.08;160301.81;1618630;88;21738;-88
2021/05/08 10:02:13;;;;;;;3.10;1.00;;;;;;;34.64;31.09;160300.50;1616689;86;21208;-87
2021/05/08 10:04:48;;;;;;;2.25;1.10;;;;;;;34.70;31.02;160316.50;1616295;86;21322;-92
2021/05/08 10:07:24;;;;;;;0.93;0.80;;;;;;;34.66;31.05;160305.84;1617533;86;21275;-86
2021/05/08 10:10:00;;;;;;;1.25;0.75;;;;;;;34.62;31.09;160295.14;1623630;86;21734;-88
2021/05/08 10:12:33;;;;;;;1.17;0.90;;;;;;;34.62;31.09;160296.45;1613102;85;21303;-87
2021/05/08 10:15:08;;;;;;;1.20;1.00;;;;;;;34.68;30.99;160312.52;1617553;86;21219;-88
2021/05/08 10:17:40;;;;;;;1.05;0.95;;;;;;;34.69;30.93;160315.20;1615662;88;21274;-89
2021/05/08 10:20:14;;;;;;;1.45;0.93;;;;;;;34.76;30.85;160333.89;1624133;86;21307;-89
2021/05/08 10:23:00;;;;;;;1.10;0.90;;;;;;;34.76;30.81;160332.58;1621845;86;21370;-86
2021/05/08 10:25:34;;;;;;;1.22;0.72;;;;;;;34.76;30.77;160333.89;1615850;88;21268;-87
2021/05/08 10:28:07;;;;;;;1.02;0.93;;;;;;;34.77;30.67;160335.25;1587043;88;21401;-88
2021/05/08 10:30:47;;;;;;;0.95;0.85;;;;;;;34.76;30.63;160333.89;1574587;88;21305;-87
2021/05/08 10:33:22;;;;;;;0.72;0.60;;;;;;;34.71;30.63;160320.56;1569632;89;21292;-90
2021/05/08 10:35:55;;;;;;;0.72;0.72;;;;;;;34.70;30.63;160316.50;1567275;89;21280;-88
2021/05/08 10:38:39;;;;;;;1.55;0.88;;;;;;;34.74;30.56;160328.53;1573220;89;21324;-86
2021/05/08 10:41:14;;;;;;;0.80;0.70;;;;;;;34.72;30.50;160323.17;1577755;89;21285;-86
2021/05/08 10:43:57;;;;;;;1.00;0.90;;;;;;;34.64;30.51;160300.50;1569268;89;21403;-89
2021/05/08 10:46:33;;;;;;;0.90;0.70;;;;;;;34.60;30.49;160291.16;1575279;89;21442;-88
2021/05/08 10:49:14;;;;;;;1.32;0.80;;;;;;;34.62;30.43;160296.45;1531416;90;21243;-88
2021/05/08 10:51:58;;;;;;;0.90;0.90;;;;;;;34.67;30.35;160308.47;1564241;89;21858;-88
2021/05/08 10:54:46;;;;;;;0.75;0.70;;;;;;;34.64;30.34;160301.81;1567071;89;22005;-88
2021/05/08 10:57:28;;;;;;;0.60;0.60;;;;;;;34.60;30.36;160289.78;1563596;89;21426;-85
2021/05/08 11:00:13;;;;;;;0.95;0.62;;;;;;;34.58;30.36;160284.44;1594876;87;21891;-86
2021/05/08 11:02:51;;;;;;;0.80;0.78;;;;;;;34.62;30.33;160296.45;1606806;87;21252;-89
2021/05/08 11:05:26;;;;;;;1.10;0.78;;;;;;;34.62;30.29;160295.14;1602281;88;21334;-91
2021/05/08 11:07:58;;;;;;;0.78;0.68;;;;;;;34.86;30.12;160360.63;1605506;87;21239;-89
2021/05/08 11:10:37;;;;;;;0.70;0.70;;;;;;;34.72;30.20;160321.88;1605184;87;21362;-89
2021/05/08 11:13:14;;;;;;;1.35;0.80;;;;;;;34.72;30.14;160321.88;1597711;87;21225;-91
2021/05/08 11:16:04;;;;;;;0.85;0.70;;;;;;;34.70;30.09;160317.88;1603945;87;21243;-90
2021/05/08 11:18:46;;;;;;;0.88;0.70;;;;;;;34.66;30.09;160307.16;1600253;87;21186;-89
2021/05/08 11:21:30;;;;;;;2.22;0.75;;;;;;;34.67;30.09;160309.84;1608690;87;21458;-89
2021/05/08 11:24:09;;;;;;;0.50;0.50;;;;;;;34.65;30.05;160304.48;1603102;87;21262;-89
2021/05/08 11:26:45;;;;;;;0.98;0.85;;;;;;;34.58;30.03;160284.44;1605613;87;21254;-90
2021/05/08 11:29:21;;;;;;;1.50;0.65;;;;;;;34.58;29.96;160285.80;1601548;88;21940;-92
2021/05/08 11:31:58;;;;;;;0.75;0.75;;;;;;;34.52;29.96;160269.67;1597311;88;21751;-89
2021/05/08 11:34:32;;;;;;;1.75;0.50;;;;;;;34.51;29.98;160267.00;1609043;87;21355;-88
2021/05/08 11:37:09;;;;;;;0.78;0.53;;;;;;;34.46;29.99;160253.66;1595774;88;21941;-91
2021/05/08 11:39:47;;;;;;;0.90;0.50;;;;;;;34.41;30.02;160240.28;1581390;88;21282;-88
2021/05/08 11:42:26;;;;;;;1.00;0.70;;;;;;;34.40;30.09;160236.28;1588110;88;21377;-90
2021/05/08 11:45:01;;;;;;;0.60;0.60;;;;;;;34.40;30.13;160236.28;1578343;88;21244;-89
2021/05/08 11:47:34;;;;;;;1.05;0.60;;;;;;;34.36;30.18;160226.94;1583333;88;21292;-89
2021/05/08 11:50:13;;;;;;;0.45;0.30;;;;;;;34.30;30.25;160210.88;1579539;88;21210;-89
2021/05/08 11:52:52;;;;;;;0.75;0.60;;;;;;;34.28;30.23;160204.22;1595929;88;21217;-89
2021/05/08 11:55:27;;;;;;;3.47;1.57;;;;;;;34.31;30.14;160212.25;1574130;88;21249;-91
2021/05/08 11:58:01;;;;;;;1.62;0.50;;;;;;;34.26;30.07;160200.17;1577960;89;21252;-88